createdAt,value
2019-03-28T00:01:31.948Z,96.56
2019-03-28T00:03:57.718Z,96.56
2019-03-28T00:06:23.501Z,96.74
2019-03-28T00:08:49.482Z,96.61
2019-03-28T00:11:15.261Z,96.54
2019-03-28T00:13:41.059Z,96.57
2019-03-28T00:16:06.846Z,96.52
2019-03-28T00:18:32.651Z,96.47
2019-03-28T00:20:58.427Z,96.54
2019-03-28T00:23:42.775Z,96.63
2019-03-28T00:26:08.558Z,96.56
2019-03-28T00:28:34.354Z,96.56
2019-03-28T00:31:00.251Z,96.47
2019-03-28T00:33:26.043Z,96.40
2019-03-28T00:35:51.828Z,96.53
2019-03-28T00:38:17.612Z,96.46
2019-03-28T00:40:43.399Z,96.33
2019-03-28T00:43:09.194Z,96.38
2019-03-28T00:45:35.585Z,96.38
2019-03-28T00:48:02.354Z,96.63
2019-03-28T00:50:28.199Z,96.61
2019-03-28T00:52:54.007Z,96.74
2019-03-28T00:55:19.925Z,96.54
2019-03-28T00:57:45.715Z,96.59
2019-03-28T01:00:11.687Z,96.70
2019-03-28T01:02:37.600Z,96.72
2019-03-28T01:05:04.578Z,96.61
2019-03-28T01:07:30.362Z,96.52
2019-03-28T01:09:56.167Z,96.69
2019-03-28T01:12:21.949Z,96.77
2019-03-28T01:14:47.737Z,96.65
2019-03-28T01:17:13.523Z,96.61
2019-03-28T01:19:39.312Z,96.76
2019-03-28T01:22:06.411Z,97.11
2019-03-28T01:24:32.221Z,97.11
2019-03-28T01:26:58.937Z,96.95
2019-03-28T01:29:26.942Z,96.73
2019-03-28T01:31:52.724Z,96.76
2019-03-28T01:34:18.814Z,96.80
2019-03-28T01:36:44.604Z,96.80
2019-03-28T01:39:10.391Z,96.77
2019-03-28T01:41:36.199Z,96.75
2019-03-28T01:44:01.981Z,96.92
2019-03-28T01:46:28.037Z,96.77
2019-03-28T01:48:54.666Z,96.74
2019-03-28T01:51:20.449Z,96.64
2019-03-28T01:53:46.239Z,96.56
2019-03-28T01:56:12.044Z,96.81
2019-03-28T01:58:37.827Z,96.80
2019-03-28T02:01:04.211Z,96.74
2019-03-28T02:03:30.206Z,96.53
2019-03-28T02:05:56.017Z,96.57
2019-03-28T02:08:24.663Z,96.67
2019-03-28T02:10:49.574Z,96.55
2019-03-28T02:13:15.380Z,96.42
2019-03-28T02:15:41.171Z,96.42
2019-03-28T02:18:06.956Z,96.71
2019-03-28T02:20:32.753Z,96.70
2019-03-28T02:23:00.973Z,96.72
2019-03-28T02:25:26.827Z,96.66
2019-03-28T02:27:53.120Z,96.51
2019-03-28T02:30:22.721Z,96.60
2019-03-28T02:32:49.212Z,96.72
2019-03-28T02:35:16.008Z,96.73
2019-03-28T02:37:41.781Z,96.62
2019-03-28T02:40:08.120Z,96.43
2019-03-28T02:42:33.939Z,96.43
2019-03-28T02:44:59.719Z,96.79
2019-03-28T02:47:25.500Z,96.80
2019-03-28T02:49:51.284Z,96.77
2019-03-28T02:52:17.091Z,96.78
2019-03-28T02:54:43.353Z,96.87
2019-03-28T02:57:09.152Z,96.92
2019-03-28T02:59:34.940Z,96.82
2019-03-28T03:02:00.746Z,96.80
2019-03-28T03:04:26.623Z,96.75
2019-03-28T03:06:52.428Z,97.03
2019-03-28T03:09:18.202Z,96.86
2019-03-28T03:11:44.111Z,96.96
2019-03-28T03:14:09.874Z,97.02
2019-03-28T03:16:35.674Z,96.98
2019-03-28T03:19:01.463Z,97.04
2019-03-28T03:21:27.274Z,96.87
2019-03-28T03:23:53.067Z,96.82
2019-03-28T03:26:18.857Z,96.90
2019-03-28T03:28:44.641Z,96.93
2019-03-28T03:31:10.448Z,97.01
2019-03-28T03:33:37.746Z,97.10
2019-03-28T03:36:04.102Z,97.09
2019-03-28T03:38:29.908Z,96.99
2019-03-28T03:40:55.721Z,96.83
2019-03-28T03:43:23.047Z,96.83
2019-03-28T03:45:49.181Z,96.95
2019-03-28T03:48:14.955Z,96.86
2019-03-28T03:50:40.751Z,96.85
2019-03-28T03:53:07.512Z,96.74
2019-03-28T03:55:33.426Z,97.11
2019-03-28T03:58:14.393Z,96.97
2019-03-28T04:00:30.708Z,96.95
2019-03-28T04:02:56.500Z,97.05
2019-03-28T04:05:22.279Z,96.89
2019-03-28T04:07:48.073Z,96.90
2019-03-28T04:10:13.847Z,96.97
2019-03-28T04:12:39.646Z,97.03
2019-03-28T04:15:05.606Z,96.95
2019-03-28T04:17:31.429Z,96.67
2019-03-28T04:19:57.211Z,96.85
2019-03-28T04:22:23.015Z,97.02
2019-03-28T04:24:48.825Z,97.07
2019-03-28T04:27:14.617Z,96.83
2019-03-28T04:29:40.393Z,96.76
2019-03-28T04:32:06.188Z,96.90
2019-03-28T04:34:31.977Z,96.91
2019-03-28T04:36:57.791Z,96.77
2019-03-28T04:39:23.582Z,96.43
2019-03-28T04:41:49.582Z,96.59
2019-03-28T04:44:15.670Z,96.81
2019-03-28T04:46:41.456Z,96.72
2019-03-28T04:49:07.242Z,96.75
2019-03-28T04:51:33.135Z,96.97
2019-03-28T04:53:58.916Z,96.86
2019-03-28T04:56:24.731Z,96.81
2019-03-28T04:58:50.510Z,97.06
2019-03-28T05:01:16.290Z,97.24
2019-03-28T05:03:42.086Z,97.27
2019-03-28T05:06:07.873Z,97.08
2019-03-28T05:08:33.679Z,97.13
2019-03-28T05:10:59.462Z,97.01
2019-03-28T05:13:25.243Z,97.04
2019-03-28T05:15:51.027Z,97.15
2019-03-28T05:18:16.820Z,96.97
2019-03-28T05:20:42.606Z,96.97
2019-03-28T05:23:08.430Z,97.33
2019-03-28T05:25:34.320Z,97.33
2019-03-28T05:28:00.121Z,96.91
2019-03-28T05:30:25.901Z,96.79
2019-03-28T05:32:51.712Z,96.78
2019-03-28T05:35:17.481Z,96.84
2019-03-28T05:37:43.276Z,96.70
2019-03-28T05:40:09.454Z,96.72
2019-03-28T05:42:35.290Z,96.78
2019-03-28T05:45:01.059Z,96.54
2019-03-28T05:47:26.838Z,96.47
2019-03-28T05:49:52.632Z,96.41
2019-03-28T05:52:18.411Z,96.41
2019-03-28T05:54:44.205Z,96.46
2019-03-28T05:57:09.988Z,96.31
2019-03-28T05:59:35.788Z,96.36
2019-03-28T06:02:01.563Z,96.30
2019-03-28T06:04:27.352Z,96.31
2019-03-28T06:06:53.141Z,96.32
2019-03-28T06:09:19.342Z,96.20
2019-03-28T06:11:45.436Z,96.14
2019-03-28T06:14:11.247Z,95.90
2019-03-28T06:16:37.037Z,95.89
2019-03-28T06:19:02.844Z,95.84
2019-03-28T06:21:28.627Z,95.75
2019-03-28T06:23:54.441Z,95.83
2019-03-28T06:26:20.226Z,95.76
2019-03-28T06:28:46.023Z,95.95
2019-03-28T06:31:11.800Z,95.62
2019-03-28T06:33:38.517Z,95.56
2019-03-28T06:36:04.405Z,95.55
2019-03-28T06:38:30.195Z,95.67
2019-03-28T06:40:55.992Z,95.67
2019-03-28T06:43:21.768Z,95.72
2019-03-28T06:45:47.569Z,95.79
2019-03-28T06:48:13.362Z,95.88
2019-03-28T06:50:39.164Z,95.90
2019-03-28T06:53:04.948Z,95.90
2019-03-28T06:55:30.744Z,95.80
2019-03-28T06:57:56.525Z,95.85
2019-03-28T07:00:22.323Z,95.71
2019-03-28T07:02:48.110Z,95.64
2019-03-28T07:05:13.904Z,95.55
2019-03-28T07:07:39.681Z,95.50
2019-03-28T07:10:05.876Z,95.51
2019-03-28T07:12:31.673Z,95.51
2019-03-28T07:14:59.599Z,95.51
2019-03-28T07:17:25.169Z,95.38
2019-03-28T07:19:50.943Z,95.38
2019-03-28T07:22:16.741Z,95.43
2019-03-28T07:24:42.529Z,95.20
2019-03-28T07:27:08.335Z,94.98
2019-03-28T07:29:34.114Z,94.81
2019-03-28T07:31:59.917Z,94.85
2019-03-28T07:34:25.696Z,94.67
2019-03-28T07:36:51.490Z,94.34
2019-03-28T07:39:19.063Z,94.37
2019-03-28T07:41:45.018Z,93.72
2019-03-28T07:44:10.785Z,93.72
2019-03-28T07:46:36.641Z,93.05
2019-03-28T07:49:02.469Z,93.04
2019-03-28T07:51:28.269Z,92.68
2019-03-28T07:53:54.050Z,92.51
2019-03-28T07:56:19.860Z,92.56
2019-03-28T07:58:45.631Z,92.80
2019-03-28T08:01:11.449Z,92.68
2019-03-28T08:03:39.917Z,92.63
2019-03-28T08:06:05.036Z,92.30
2019-03-28T08:08:38.753Z,91.55
2019-03-28T08:10:58.504Z,91.71
2019-03-28T08:13:24.295Z,91.80
2019-03-28T08:15:50.279Z,91.99
2019-03-28T08:18:16.078Z,92.08
2019-03-28T08:20:41.869Z,91.94
2019-03-28T08:23:07.673Z,91.95
2019-03-28T08:25:33.461Z,92.11
2019-03-28T08:27:59.252Z,91.90
2019-03-28T08:30:33.429Z,91.84
2019-03-28T08:32:59.239Z,91.92
2019-03-28T08:35:25.014Z,92.48
2019-03-28T08:37:50.911Z,92.41
2019-03-28T08:40:20.508Z,91.74
2019-03-28T08:42:46.309Z,91.66
2019-03-28T08:45:12.190Z,91.59
2019-03-28T08:47:37.990Z,91.78
2019-03-28T08:50:05.284Z,90.94
2019-03-28T08:52:31.095Z,90.69
2019-03-28T08:54:56.880Z,90.69
2019-03-28T08:57:22.689Z,90.63
2019-03-28T08:59:48.468Z,90.56
2019-03-28T09:02:14.271Z,90.12
2019-03-28T09:04:40.074Z,89.71
2019-03-28T09:07:05.889Z,89.90
2019-03-28T09:09:31.669Z,89.52
2019-03-28T09:11:57.459Z,89.52
2019-03-28T09:14:23.252Z,89.38
2019-03-28T09:16:49.027Z,89.52
2019-03-28T09:19:14.825Z,89.29
2019-03-28T09:21:40.614Z,89.10
2019-03-28T09:24:06.428Z,89.00
2019-03-28T09:26:32.217Z,88.82
2019-03-28T09:28:58.012Z,88.79
2019-03-28T09:31:23.903Z,89.05
2019-03-28T09:33:49.696Z,89.51
2019-03-28T09:36:15.488Z,89.41
2019-03-28T09:38:41.360Z,89.57
2019-03-28T09:41:07.146Z,89.27
2019-03-28T09:43:32.942Z,89.21
2019-03-28T09:46:00.350Z,89.38
2019-03-28T09:48:26.437Z,89.15
2019-03-28T09:50:52.222Z,89.09
2019-03-28T09:53:18.016Z,88.95
2019-03-28T09:55:43.796Z,88.61
2019-03-28T09:58:09.598Z,87.38
2019-03-28T10:00:35.387Z,87.38
2019-03-28T10:03:01.190Z,87.23
2019-03-28T10:05:26.978Z,87.10
2019-03-28T10:07:52.777Z,86.70
2019-03-28T10:10:18.571Z,87.31
2019-03-28T10:12:44.373Z,87.29
2019-03-28T10:15:10.260Z,86.96
2019-03-28T10:17:36.038Z,87.02
2019-03-28T10:20:01.843Z,86.90
2019-03-28T10:22:27.628Z,87.54
2019-03-28T10:24:53.427Z,87.16
2019-03-28T10:27:19.490Z,87.06
2019-03-28T10:29:45.499Z,86.72
2019-03-28T10:32:11.286Z,86.80
2019-03-28T10:34:37.186Z,86.75
2019-03-28T10:37:02.976Z,86.35
2019-03-28T10:39:28.774Z,86.37
2019-03-28T10:41:54.870Z,86.27
2019-03-28T10:44:20.965Z,86.56
2019-03-28T10:46:46.760Z,86.77
2019-03-28T10:49:12.550Z,86.39
2019-03-28T10:51:38.335Z,85.78
2019-03-28T10:54:04.133Z,86.33
2019-03-28T10:56:29.928Z,86.35
2019-03-28T10:58:55.715Z,86.35
2019-03-28T11:01:36.108Z,85.62
2019-03-28T11:03:49.224Z,85.68
2019-03-28T11:06:15.000Z,85.46
2019-03-28T11:08:40.798Z,85.79
2019-03-28T11:11:06.574Z,85.87
2019-03-28T11:13:32.379Z,85.48
2019-03-28T11:15:58.160Z,84.27
2019-03-28T11:18:23.979Z,84.23
2019-03-28T11:20:49.754Z,84.46
2019-03-28T11:23:15.566Z,83.65
2019-03-28T11:25:41.354Z,83.34
2019-03-28T11:28:07.143Z,83.12
2019-03-28T11:30:32.943Z,83.53
2019-03-28T11:32:58.736Z,83.26
2019-03-28T11:35:24.577Z,82.74
2019-03-28T11:37:50.466Z,82.85
2019-03-28T11:40:16.277Z,83.37
2019-03-28T11:42:42.048Z,83.66
2019-03-28T11:45:09.892Z,83.80
2019-03-28T11:47:35.853Z,83.31
2019-03-28T11:50:08.025Z,82.55
2019-03-28T11:52:33.907Z,81.69
2019-03-28T11:54:59.706Z,81.26
2019-03-28T11:57:25.489Z,81.25
2019-03-28T11:59:51.279Z,81.44
2019-03-28T12:02:20.379Z,81.83
2019-03-28T12:04:44.782Z,82.21
2019-03-28T12:07:10.572Z,82.60
2019-03-28T12:09:36.373Z,82.67
2019-03-28T12:12:02.187Z,82.56
2019-03-28T12:14:27.976Z,82.98
2019-03-28T12:16:53.770Z,83.04
2019-03-28T12:19:19.565Z,83.02
2019-03-28T12:21:45.383Z,83.24
2019-03-28T12:24:11.144Z,83.51
2019-03-28T12:26:37.775Z,83.62
2019-03-28T12:29:05.766Z,83.46
2019-03-28T12:31:33.254Z,84.27
2019-03-28T12:33:58.960Z,83.97
2019-03-28T12:36:24.757Z,83.52
2019-03-28T12:38:50.549Z,83.55
2019-03-28T12:41:16.354Z,82.99
2019-03-28T12:43:42.149Z,83.56
2019-03-28T12:46:07.947Z,83.57
2019-03-28T12:48:33.725Z,83.49
2019-03-28T12:51:00.745Z,83.38
2019-03-28T12:53:26.817Z,83.04
2019-03-28T12:55:52.616Z,83.47
2019-03-28T12:58:18.395Z,83.62
2019-03-28T13:00:44.191Z,83.78
2019-03-28T13:03:09.985Z,83.74
2019-03-28T13:05:35.782Z,82.72
2019-03-28T13:08:01.566Z,83.19
2019-03-28T13:10:27.532Z,83.78
2019-03-28T13:12:53.482Z,83.46
2019-03-28T13:15:19.282Z,83.21
2019-03-28T13:17:45.073Z,82.74
2019-03-28T13:20:11.552Z,83.29
2019-03-28T13:22:37.362Z,83.38
2019-03-28T13:25:05.057Z,82.47
2019-03-28T13:27:30.860Z,82.44
2019-03-28T13:29:56.650Z,81.95
2019-03-28T13:32:22.451Z,81.79
2019-03-28T13:34:48.236Z,82.11
2019-03-28T13:37:14.044Z,81.91
2019-03-28T13:39:39.832Z,81.94
2019-03-28T13:42:05.629Z,81.96
2019-03-28T13:44:31.416Z,82.30
2019-03-28T13:46:57.280Z,82.16
2019-03-28T13:49:23.079Z,82.00
2019-03-28T13:51:48.923Z,81.86
2019-03-28T13:54:14.771Z,81.78
2019-03-28T13:56:40.547Z,81.89
2019-03-28T13:59:06.348Z,81.25
2019-03-28T14:01:32.125Z,81.48
2019-03-28T14:03:57.930Z,81.02
2019-03-28T14:06:24.841Z,81.11
2019-03-28T14:08:50.981Z,81.25
2019-03-28T14:11:16.778Z,81.14
2019-03-28T14:13:42.571Z,81.21
2019-03-28T14:16:10.304Z,81.19
2019-03-28T14:18:36.107Z,81.44
2019-03-28T14:21:01.905Z,81.30
2019-03-28T14:23:27.712Z,81.44
2019-03-28T14:25:53.488Z,81.70
2019-03-28T14:28:19.285Z,81.99
2019-03-28T14:30:45.781Z,82.04
2019-03-28T14:33:15.582Z,82.76
2019-03-28T14:35:42.585Z,82.88
2019-03-28T14:38:08.373Z,82.96
2019-03-28T14:40:34.157Z,83.40
2019-03-28T14:42:59.994Z,83.47
2019-03-28T14:45:25.777Z,82.94
2019-03-28T14:47:51.580Z,82.49
2019-03-28T14:50:21.360Z,82.36
2019-03-28T14:52:47.808Z,81.82
2019-03-28T14:55:13.603Z,81.63
2019-03-28T14:57:39.495Z,81.56
2019-03-28T15:00:15.019Z,81.33
2019-03-28T15:02:40.877Z,81.59
2019-03-28T15:05:06.751Z,82.04
2019-03-28T15:07:32.541Z,82.33
2019-03-28T15:09:58.324Z,82.96
2019-03-28T15:12:24.101Z,83.11
2019-03-28T15:14:49.907Z,83.06
2019-03-28T15:17:15.715Z,83.12
2019-03-28T15:19:41.500Z,83.11
2019-03-28T15:22:07.278Z,83.19
2019-03-28T15:24:33.088Z,83.78
2019-03-28T15:26:58.892Z,83.74
2019-03-28T15:29:24.677Z,83.78
2019-03-28T15:31:50.479Z,83.48
2019-03-28T15:34:16.276Z,83.61
2019-03-28T15:36:42.276Z,83.63
2019-03-28T15:39:08.065Z,83.83
2019-03-28T15:41:33.841Z,84.01
2019-03-28T15:43:59.636Z,83.96
2019-03-28T15:46:27.878Z,83.94
2019-03-28T15:48:53.843Z,83.86
2019-03-28T15:51:19.645Z,83.71
2019-03-28T15:53:45.438Z,83.67
2019-03-28T15:56:11.228Z,83.58
2019-03-28T15:58:37.020Z,83.58
2019-03-28T16:01:02.916Z,83.81
2019-03-28T16:03:28.706Z,84.11
2019-03-28T16:05:58.431Z,83.81
2019-03-28T16:08:22.605Z,83.93
2019-03-28T16:10:48.401Z,84.16
2019-03-28T16:13:14.406Z,84.05
2019-03-28T16:15:40.256Z,84.07
2019-03-28T16:18:06.040Z,83.96
2019-03-28T16:20:31.839Z,83.86
2019-03-28T16:22:58.288Z,83.81
2019-03-28T16:25:24.521Z,83.87
2019-03-28T16:27:50.281Z,83.86
2019-03-28T16:30:19.897Z,83.76
2019-03-28T16:32:45.691Z,83.88
2019-03-28T16:35:11.593Z,83.80
2019-03-28T16:37:37.384Z,83.84
2019-03-28T16:40:04.088Z,83.73
2019-03-28T16:42:30.184Z,83.85
2019-03-28T16:44:56.136Z,83.79
2019-03-28T16:47:21.971Z,83.92
2019-03-28T16:49:47.748Z,83.92
2019-03-28T16:52:13.542Z,84.15
2019-03-28T16:54:39.329Z,83.33
2019-03-28T16:57:05.130Z,83.14
2019-03-28T16:59:30.929Z,82.50
2019-03-28T17:01:56.728Z,82.44
2019-03-28T17:04:23.054Z,82.60
2019-03-28T17:06:49.313Z,82.81
2019-03-28T17:09:15.103Z,82.81
2019-03-28T17:11:40.900Z,82.91
2019-03-28T17:14:06.682Z,82.92
2019-03-28T17:16:32.483Z,83.39
2019-03-28T17:18:58.272Z,83.24
2019-03-28T17:21:24.072Z,83.05
2019-03-28T17:23:49.874Z,83.16
2019-03-28T17:26:15.700Z,83.26
2019-03-28T17:28:41.783Z,83.26
2019-03-28T17:31:07.582Z,83.22
2019-03-28T17:33:33.366Z,83.08
2019-03-28T17:35:59.170Z,83.04
2019-03-28T17:38:24.960Z,83.09
2019-03-28T17:40:50.758Z,83.15
2019-03-28T17:43:16.560Z,83.64
2019-03-28T17:45:42.445Z,83.66
2019-03-28T17:48:08.451Z,83.83
2019-03-28T17:50:34.247Z,84.66
2019-03-28T17:53:00.051Z,84.66
2019-03-28T17:55:26.154Z,84.20
2019-03-28T17:57:51.949Z,84.20
2019-03-28T18:00:17.933Z,84.66
2019-03-28T18:02:43.734Z,85.41
2019-03-28T18:05:12.087Z,85.42
2019-03-28T18:07:37.254Z,85.69
2019-03-28T18:10:04.540Z,85.75
2019-03-28T18:12:30.640Z,85.63
2019-03-28T18:14:56.447Z,85.66
2019-03-28T18:17:22.370Z,85.72
2019-03-28T18:19:48.153Z,85.75
2019-03-28T18:22:13.951Z,85.74
2019-03-28T18:24:39.960Z,85.59
2019-03-28T18:27:06.013Z,85.32
2019-03-28T18:29:31.993Z,85.11
2019-03-28T18:31:57.785Z,84.78
2019-03-28T18:34:23.591Z,84.44
2019-03-28T18:36:49.384Z,84.25
2019-03-28T18:39:15.246Z,83.98
2019-03-28T18:41:41.062Z,83.88
2019-03-28T18:44:06.918Z,83.86
2019-03-28T18:46:32.709Z,83.62
2019-03-28T18:48:58.642Z,83.26
2019-03-28T18:51:24.429Z,82.85
2019-03-28T18:53:50.316Z,82.69
2019-03-28T18:56:16.148Z,82.62
2019-03-28T18:58:41.953Z,82.66
2019-03-28T19:01:07.860Z,82.43
2019-03-28T19:03:33.648Z,82.54
2019-03-28T19:05:59.562Z,82.74
2019-03-28T19:08:25.339Z,82.86
2019-03-28T19:10:51.276Z,82.90
2019-03-28T19:13:17.041Z,82.87
2019-03-28T19:15:42.838Z,82.54
2019-03-28T19:18:08.629Z,82.49
2019-03-28T19:20:35.852Z,82.37
2019-03-28T19:23:01.823Z,82.27
2019-03-28T19:25:27.652Z,82.01
2019-03-28T19:27:53.422Z,82.32
2019-03-28T19:30:26.156Z,82.55
2019-03-28T19:32:51.944Z,82.70
2019-03-28T19:35:17.737Z,82.91
2019-03-28T19:37:43.713Z,83.04
2019-03-28T19:40:09.820Z,83.08
2019-03-28T19:42:36.419Z,83.10
2019-03-28T19:45:04.425Z,83.22
2019-03-28T19:47:30.264Z,83.30
2019-03-28T19:49:56.062Z,83.29
2019-03-28T19:52:21.857Z,83.43
2019-03-28T19:54:47.668Z,83.67
2019-03-28T19:57:13.453Z,83.81
2019-03-28T19:59:39.248Z,84.11
2019-03-28T20:02:05.041Z,84.13
2019-03-28T20:04:30.857Z,84.17
2019-03-28T20:06:56.645Z,84.16
2019-03-28T20:09:22.442Z,84.11
2019-03-28T20:11:48.231Z,83.85
2019-03-28T20:14:14.016Z,84.01
2019-03-28T20:16:39.808Z,83.99
2019-03-28T20:19:05.602Z,83.97
2019-03-28T20:21:31.401Z,83.85
2019-03-28T20:23:57.204Z,83.69
2019-03-28T20:26:22.998Z,83.50
2019-03-28T20:28:48.786Z,83.44
2019-03-28T20:31:14.581Z,83.36
2019-03-28T20:33:40.413Z,83.08
2019-03-28T20:36:30.059Z,83.00
2019-03-28T20:38:34.366Z,82.57
2019-03-28T20:41:00.416Z,82.57
2019-03-28T20:43:26.892Z,81.90
2019-03-28T20:45:52.907Z,81.98
2019-03-28T20:48:18.690Z,81.94
2019-03-28T20:50:44.549Z,81.90
2019-03-28T20:53:10.420Z,82.18
2019-03-28T20:55:36.332Z,82.07
2019-03-28T20:58:02.825Z,81.92
2019-03-28T21:00:38.841Z,81.98
2019-03-28T21:03:04.926Z,81.98
2019-03-28T21:05:30.777Z,82.26
2019-03-28T21:07:56.560Z,82.26
2019-03-28T21:10:23.143Z,82.34
2019-03-28T21:12:48.953Z,82.58
2019-03-28T21:15:14.732Z,82.40
2019-03-28T21:17:40.529Z,82.50
2019-03-28T21:20:06.414Z,82.29
2019-03-28T21:22:32.228Z,82.51
2019-03-28T21:24:58.026Z,82.75
2019-03-28T21:27:23.819Z,82.81
2019-03-28T21:29:51.013Z,82.90
2019-03-28T21:32:17.125Z,82.67
2019-03-28T21:34:42.914Z,82.67
2019-03-28T21:37:08.706Z,82.86
2019-03-28T21:39:34.815Z,82.58
2019-03-28T21:42:00.706Z,82.83
2019-03-28T21:44:26.568Z,82.85
2019-03-28T21:46:52.385Z,82.71
2019-03-28T21:49:18.165Z,82.72
2019-03-28T21:51:45.891Z,82.78
2019-03-28T21:54:11.667Z,82.89
2019-03-28T21:56:37.446Z,82.68
2019-03-28T21:59:03.260Z,82.71
2019-03-28T22:01:29.033Z,82.52
2019-03-28T22:03:54.845Z,82.44
2019-03-28T22:06:20.925Z,82.55
2019-03-28T22:08:46.729Z,82.48
2019-03-28T22:11:12.512Z,82.30
2019-03-28T22:13:38.310Z,82.49
2019-03-28T22:16:07.384Z,82.52
2019-03-28T22:18:31.893Z,82.59
2019-03-28T22:20:57.684Z,82.48
2019-03-28T22:23:23.483Z,82.49
2019-03-28T22:25:49.297Z,82.67
2019-03-28T22:28:15.090Z,82.67
2019-03-28T22:30:40.892Z,83.01
2019-03-28T22:33:06.712Z,83.01
2019-03-28T22:35:32.496Z,82.65
2019-03-28T22:37:58.681Z,82.80
2019-03-28T22:40:24.482Z,82.63
2019-03-28T22:42:50.267Z,82.75
2019-03-28T22:45:16.061Z,83.00
2019-03-28T22:47:41.843Z,83.11
2019-03-28T22:50:07.945Z,83.72
2019-03-28T22:52:33.747Z,83.79
2019-03-28T22:54:59.571Z,83.81
2019-03-28T22:57:25.347Z,83.79
2019-03-28T22:59:51.161Z,83.69
2019-03-28T23:02:16.935Z,83.73
2019-03-28T23:04:42.737Z,83.64
2019-03-28T23:07:11.068Z,83.62
2019-03-28T23:09:36.231Z,84.04
2019-03-28T23:12:02.018Z,84.01
2019-03-28T23:14:27.821Z,84.13
2019-03-28T23:16:55.073Z,84.24
2019-03-28T23:19:21.089Z,84.06
2019-03-28T23:21:46.869Z,84.01
2019-03-28T23:24:12.696Z,84.12
2019-03-28T23:26:38.497Z,84.29
2019-03-28T23:29:04.358Z,84.42
2019-03-28T23:31:30.167Z,84.81
2019-03-28T23:33:56.248Z,84.84
2019-03-28T23:36:22.752Z,85.03
2019-03-28T23:38:48.531Z,85.32
2019-03-28T23:41:14.331Z,85.51
2019-03-28T23:43:40.117Z,85.52
2019-03-28T23:46:05.909Z,85.73
2019-03-28T23:48:31.709Z,85.71
2019-03-28T23:50:58.708Z,85.74
2019-03-28T23:53:24.637Z,85.72
2019-03-28T23:55:50.434Z,85.67
2019-03-28T23:58:16.224Z,85.68
